Time;durP1;ratioP1;P1;durP2;ratioP2;P2;SDS_P1;SDS_P2;PMS_P1;PMS_P2;Temp;Humidity;BMP_temperature;BMP_pressure;BME280_temperature;BME280_humidity;BME280_pressure;Samples;Min_cycle;Max_cycle;Signal;HPM_P1;HPM_P2
2021/01/12 00:00:46;;;;;;;9.50;8.00;;;21.80;57.80;;;;;;4961807;28;20248;-52
2021/01/12 00:03:16;;;;;;;9.23;6.85;;;21.80;57.90;;;;;;4971185;28;20736;-52
2021/01/12 00:05:46;;;;;;;12.13;7.53;;;21.70;57.80;;;;;;4968862;28;20323;-53
2021/01/12 00:08:17;;;;;;;10.50;6.97;;;21.70;57.80;;;;;;4970949;28;20259;-55
2021/01/12 00:10:47;;;;;;;9.27;7.28;;;21.70;57.80;;;;;;4970199;28;20236;-56
2021/01/12 00:13:19;;;;;;;11.23;6.93;;;21.70;57.80;;;;;;4970103;28;20635;-54
2021/01/12 00:15:49;;;;;;;11.32;7.03;;;21.60;57.80;;;;;;4968126;28;20348;-56
2021/01/12 00:18:20;;;;;;;8.93;7.88;;;21.70;57.80;;;;;;4966930;28;20610;-55
2021/01/12 00:20:50;;;;;;;9.02;7.68;;;21.60;57.80;;;;;;4967761;28;20246;-53
2021/01/12 00:23:21;;;;;;;8.77;7.97;;;21.60;57.80;;;;;;4967818;28;20232;-51
2021/01/12 00:25:51;;;;;;;11.18;7.13;;;21.60;57.90;;;;;;4969116;28;20229;-51
2021/01/12 00:28:23;;;;;;;10.00;6.38;;;21.50;57.80;;;;;;4969865;28;20252;-50
2021/01/12 00:30:53;;;;;;;10.20;7.22;;;21.50;57.80;;;;;;4975675;28;20231;-53
2021/01/12 00:33:24;;;;;;;9.45;7.60;;;21.60;57.90;;;;;;4968757;28;20233;-56
2021/01/12 00:35:54;;;;;;;8.07;7.13;;;21.60;57.90;;;;;;4966844;28;20232;-50
2021/01/12 00:38:25;;;;;;;10.45;6.85;;;21.50;57.80;;;;;;4967945;28;20302;-52
2021/01/12 00:40:56;;;;;;;10.73;7.68;;;21.50;58.00;;;;;;4967715;28;20312;-49
2021/01/12 00:43:27;;;;;;;9.60;6.43;;;21.50;57.90;;;;;;4968528;28;20224;-54
2021/01/12 00:45:58;;;;;;;7.75;7.05;;;21.60;57.90;;;;;;4967156;28;20311;-54
2021/01/12 00:48:28;;;;;;;12.13;8.00;;;21.60;57.90;;;;;;4968211;28;20612;-52
2021/01/12 00:51:00;;;;;;;12.38;6.80;;;21.60;57.80;;;;;;4967755;28;20245;-54
2021/01/12 00:53:30;;;;;;;14.45;7.90;;;21.60;57.80;;;;;;4970160;28;20248;-56
2021/01/12 00:56:01;;;;;;;11.27;10.05;;;21.60;57.70;;;;;;4972749;28;20230;-54
2021/01/12 00:58:33;;;;;;;12.25;8.88;;;21.70;57.80;;;;;;4966674;28;20228;-55
2021/01/12 01:01:03;;;;;;;28.27;15.07;;;21.70;57.70;;;;;;4966478;28;20235;-51
2021/01/12 01:03:34;;;;;;;13.10;9.38;;;21.80;57.70;;;;;;4969975;28;20231;-55
2021/01/12 01:06:08;;;;;;;11.00;9.35;;;21.70;57.40;;;;;;4967733;28;20229;-50
2021/01/12 01:08:38;;;;;;;11.98;8.20;;;21.80;57.40;;;;;;4965469;28;20232;-55
2021/01/12 01:11:09;;;;;;;11.73;7.90;;;21.80;57.20;;;;;;4966166;28;20228;-53
2021/01/12 01:13:40;;;;;;;14.25;8.68;;;21.80;57.00;;;;;;4969168;28;20607;-49
2021/01/12 01:16:11;;;;;;;14.20;9.30;;;21.90;57.00;;;;;;4978754;28;20884;-50
2021/01/12 01:18:41;;;;;;;16.50;11.20;;;21.90;57.00;;;;;;4965871;28;20232;-53
2021/01/12 01:21:13;;;;;;;13.65;10.82;;;21.90;56.80;;;;;;4966772;28;20708;-56
2021/01/12 01:23:45;;;;;;;14.30;10.65;;;22.00;56.80;;;;;;4965342;28;20778;-51
2021/01/12 01:26:17;;;;;;;15.82;10.15;;;22.00;56.50;;;;;;4965328;28;20591;-55
2021/01/12 01:28:48;;;;;;;10.15;9.02;;;22.00;56.50;;;;;;4965963;28;20241;-56
2021/01/12 01:31:19;;;;;;;14.55;9.20;;;22.00;56.40;;;;;;4959845;28;20251;-56
2021/01/12 01:33:49;;;;;;;12.50;9.98;;;22.00;56.30;;;;;;4958810;28;20233;-54
2021/01/12 01:36:20;;;;;;;12.82;9.63;;;22.00;56.40;;;;;;4961909;28;20245;-56
2021/01/12 01:38:50;;;;;;;22.65;12.77;;;22.10;56.40;;;;;;4967042;28;20292;-51
2021/01/12 01:41:22;;;;;;;19.77;12.40;;;22.10;56.40;;;;;;4964270;28;20248;-55
2021/01/12 01:43:54;;;;;;;12.30;9.40;;;22.10;56.20;;;;;;4962821;28;20224;-51
2021/01/12 01:46:25;;;;;;;11.95;10.65;;;22.20;56.00;;;;;;4973118;28;20234;-52
2021/01/12 01:48:55;;;;;;;15.43;9.02;;;22.20;55.90;;;;;;4958753;28;20264;-50
2021/01/12 01:51:28;;;;;;;17.10;10.55;;;22.30;55.80;;;;;;4973179;28;20229;-51
2021/01/12 01:53:59;;;;;;;14.65;9.18;;;22.30;55.70;;;;;;4967487;28;20232;-50
2021/01/12 01:56:29;;;;;;;10.85;8.20;;;22.30;55.70;;;;;;4976214;28;20260;-50
2021/01/12 01:59:00;;;;;;;10.95;9.10;;;22.40;55.70;;;;;;4964740;28;20709;-53
2021/01/12 02:01:31;;;;;;;15.80;9.80;;;22.40;55.60;;;;;;4965800;28;20254;-56
2021/01/12 02:04:06;;;;;;;10.18;9.02;;;22.50;55.30;;;;;;4962979;28;20634;-55
2021/01/12 02:06:37;;;;;;;11.52;8.82;;;22.50;55.00;;;;;;4967339;28;20302;-54
2021/01/12 02:09:13;;;;;;;15.32;9.40;;;22.50;55.10;;;;;;4998346;28;20249;-54
2021/01/12 02:11:45;;;;;;;14.57;11.27;;;22.60;55.00;;;;;;4984626;28;20692;-55
2021/01/12 02:14:18;;;;;;;10.60;9.50;;;22.70;55.10;;;;;;4967059;28;20645;-56
2021/01/12 02:16:48;;;;;;;13.98;10.23;;;22.70;55.00;;;;;;4972359;28;20336;-50
2021/01/12 02:19:20;;;;;;;12.13;9.80;;;22.80;54.80;;;;;;4959580;28;20241;-54
2021/01/12 02:21:50;;;;;;;13.43;10.32;;;22.80;54.40;;;;;;4960735;28;20278;-53
2021/01/12 02:24:22;;;;;;;22.65;16.00;;;22.90;54.40;;;;;;4962956;28;20580;-51
2021/01/12 02:26:52;;;;;;;23.15;15.13;;;22.90;54.30;;;;;;4959949;28;20236;-55
2021/01/12 02:29:23;;;;;;;17.70;14.35;;;23.00;54.20;;;;;;4974916;28;20692;-54
2021/01/12 02:31:53;;;;;;;18.65;13.68;;;23.10;54.10;;;;;;4983236;28;20908;-52
2021/01/12 02:34:24;;;;;;;22.35;15.10;;;23.20;53.70;;;;;;4964020;28;20695;-51
2021/01/12 02:36:54;;;;;;;11.65;10.00;;;23.20;53.90;;;;;;4923603;28;20637;-51
2021/01/12 02:39:26;;;;;;;10.93;9.77;;;23.30;53.50;;;;;;4924088;29;20707;-55
2021/01/12 02:41:57;;;;;;;12.68;8.95;;;23.30;53.60;;;;;;4923008;28;20372;-54
2021/01/12 02:44:27;;;;;;;13.43;10.75;;;23.40;53.60;;;;;;4924337;28;20746;-53
2021/01/12 02:46:58;;;;;;;15.80;10.05;;;23.50;53.30;;;;;;4920444;28;20238;-54
2021/01/12 02:49:28;;;;;;;12.25;9.73;;;23.60;53.30;;;;;;4921034;28;20242;-55
2021/01/12 02:51:59;;;;;;;15.20;9.95;;;23.60;53.10;;;;;;4921582;28;20238;-52
2021/01/12 02:54:31;;;;;;;14.23;10.18;;;23.70;52.80;;;;;;4922907;28;20233;-55
2021/01/12 02:57:01;;;;;;;11.40;9.60;;;23.80;52.80;;;;;;4942095;28;20235;-53
2021/01/12 02:59:31;;;;;;;11.60;9.38;;;23.90;52.80;;;;;;4932191;28;20254;-51
2021/01/12 03:02:02;;;;;;;12.43;9.13;;;23.90;52.40;;;;;;4967541;28;20233;-54
2021/01/12 03:04:32;;;;;;;20.17;11.38;;;24.00;52.20;;;;;;4958416;28;20374;-53
2021/01/12 03:07:02;;;;;;;16.70;9.25;;;24.00;52.10;;;;;;4965177;28;20240;-49
2021/01/12 03:09:34;;;;;;;18.13;10.23;;;24.10;52.10;;;;;;4957912;28;20233;-51
2021/01/12 03:12:05;;;;;;;15.23;9.00;;;24.10;51.70;;;;;;4957812;28;20241;-51
2021/01/12 03:14:35;;;;;;;10.48;8.85;;;24.20;51.90;;;;;;4960220;28;20233;-55
2021/01/12 03:17:11;;;;;;;13.02;9.48;;;24.30;51.80;;;;;;4961608;28;20232;-55
2021/01/12 03:19:41;;;;;;;11.98;8.48;;;24.30;51.90;;;;;;4963810;28;20241;-53
2021/01/12 03:22:12;;;;;;;12.05;9.27;;;24.40;51.90;;;;;;4956142;28;20317;-56
2021/01/12 03:24:43;;;;;;;9.73;8.68;;;24.50;51.90;;;;;;4960091;28;20636;-54
2021/01/12 03:27:14;;;;;;;13.23;9.43;;;24.60;51.50;;;;;;4961179;28;20579;-54
2021/01/12 03:29:44;;;;;;;10.30;9.27;;;24.70;51.30;;;;;;4975817;28;20260;-56
2021/01/12 03:32:15;;;;;;;10.55;8.40;;;24.70;51.30;;;;;;4958522;28;20678;-54
2021/01/12 03:34:45;;;;;;;9.23;8.30;;;24.80;51.30;;;;;;4961735;28;20677;-54
2021/01/12 03:37:16;;;;;;;18.77;8.20;;;24.90;51.00;;;;;;4953425;28;20310;-53
2021/01/12 03:39:47;;;;;;;11.27;8.90;;;25.00;50.60;;;;;;4961086;28;20240;-54
2021/01/12 03:42:18;;;;;;;11.23;8.02;;;25.10;50.00;;;;;;4961977;28;20235;-53
2021/01/12 03:44:49;;;;;;;9.77;7.88;;;25.10;50.20;;;;;;4964229;28;20237;-53
2021/01/12 03:47:19;;;;;;;10.27;8.18;;;25.20;50.00;;;;;;4916443;28;20766;-50
2021/01/12 03:49:49;;;;;;;10.07;8.35;;;25.30;50.10;;;;;;4920570;28;20244;-50
2021/01/12 03:52:20;;;;;;;13.10;8.88;;;25.40;50.10;;;;;;4915408;28;20324;-52
2021/01/12 03:54:53;;;;;;;9.00;7.88;;;25.40;49.60;;;;;;4919943;28;20326;-54
2021/01/12 03:57:23;;;;;;;9.70;8.70;;;25.50;49.70;;;;;;4876295;28;20690;-50
2021/01/12 03:59:53;;;;;;;9.18;8.13;;;25.60;49.50;;;;;;4918152;28;20246;-55
2021/01/12 04:02:24;;;;;;;11.82;8.40;;;25.60;49.30;;;;;;4915877;28;20315;-55
2021/01/12 04:04:56;;;;;;;11.40;8.27;;;25.70;49.40;;;;;;4924412;28;20309;-51
2021/01/12 04:07:27;;;;;;;12.00;7.78;;;25.80;49.40;;;;;;4953142;28;20355;-52
2021/01/12 04:09:58;;;;;;;8.27;7.47;;;25.90;49.30;;;;;;4968530;28;20231;-54
2021/01/12 04:12:29;;;;;;;10.63;8.60;;;25.90;49.20;;;;;;4949780;28;20586;-52
2021/01/12 04:14:59;;;;;;;13.73;8.05;;;25.90;48.90;;;;;;4959623;28;20236;-53
2021/01/12 04:17:29;;;;;;;10.90;7.68;;;26.00;49.00;;;;;;4961041;28;20235;-51
2021/01/12 04:20:00;;;;;;;13.50;8.40;;;26.10;48.90;;;;;;4959294;28;20236;-51
2021/01/12 04:22:31;;;;;;;10.23;8.55;;;26.10;48.50;;;;;;4959361;28;20236;-52
2021/01/12 04:25:06;;;;;;;9.82;8.38;;;26.20;48.30;;;;;;4960187;28;20249;-53
2021/01/12 04:27:37;;;;;;;10.10;7.03;;;26.20;48.60;;;;;;4964701;28;21037;-56
2021/01/12 04:30:08;;;;;;;10.82;7.75;;;26.30;49.10;;;;;;4960220;28;20229;-54
2021/01/12 04:32:38;;;;;;;10.60;7.60;;;26.40;48.90;;;;;;4966116;28;20244;-56
2021/01/12 04:35:10;;;;;;;8.35;6.95;;;26.40;48.90;;;;;;4995826;28;20636;-57
2021/01/12 04:37:40;;;;;;;10.48;7.63;;;26.50;49.00;;;;;;4999282;28;20228;-56
2021/01/12 04:40:12;;;;;;;8.70;7.25;;;26.60;48.90;;;;;;4964366;28;20754;-53
2021/01/12 04:42:44;;;;;;;11.05;7.13;;;26.70;49.00;;;;;;4992838;28;20236;-56
2021/01/12 04:45:14;;;;;;;10.02;8.52;;;26.80;49.10;;;;;;5052267;28;20284;-57
2021/01/12 04:47:45;;;;;;;17.55;9.75;;;26.90;48.40;;;;;;4983201;28;20228;-54
2021/01/12 04:50:15;;;;;;;14.48;10.10;;;27.00;48.00;;;;;;4964412;28;20225;-57
2021/01/12 04:52:48;;;;;;;13.00;10.23;;;27.10;47.30;;;;;;4963045;28;20236;-57
2021/01/12 04:55:21;;;;;;;11.73;9.13;;;27.20;47.10;;;;;;5004328;28;22857;-55
2021/01/12 04:57:51;;;;;;;10.93;9.20;;;27.20;47.00;;;;;;5002897;28;20342;-56
2021/01/12 05:00:24;;;;;;;9.77;8.77;;;27.30;47.00;;;;;;4971204;28;20646;-56
2021/01/12 05:03:00;;;;;;;10.10;9.02;;;27.30;47.20;;;;;;4969296;28;20259;-55
2021/01/12 05:05:34;;;;;;;9.80;8.25;;;27.30;46.70;;;;;;4959809;28;20233;-55
2021/01/12 05:08:05;;;;;;;10.68;8.93;;;27.40;47.10;;;;;;4962257;28;20256;-52
2021/01/12 05:10:38;;;;;;;15.40;9.45;;;27.40;46.80;;;;;;4972596;28;20248;-55
2021/01/12 05:13:10;;;;;;;11.18;8.13;;;27.40;46.30;;;;;;4969846;28;20701;-52
2021/01/12 05:15:40;;;;;;;10.70;9.00;;;27.50;46.50;;;;;;4999236;28;20233;-56
2021/01/12 05:18:11;;;;;;;11.00;9.73;;;27.60;46.60;;;;;;4962314;28;20244;-53
2021/01/12 05:20:45;;;;;;;9.63;8.25;;;27.60;46.30;;;;;;4969331;28;20321;-57
2021/01/12 05:23:21;;;;;;;10.90;8.10;;;27.60;46.70;;;;;;4964007;28;20229;-56
2021/01/12 05:25:54;;;;;;;11.65;9.70;;;27.70;46.70;;;;;;4963118;28;20329;-56
2021/01/12 05:28:26;;;;;;;12.27;9.80;;;27.80;46.10;;;;;;4962910;28;20673;-56
2021/01/12 05:30:56;;;;;;;10.52;9.43;;;27.80;45.90;;;;;;4953085;28;20650;-57
2021/01/12 05:33:28;;;;;;;15.60;12.77;;;27.90;46.30;;;;;;4930866;28;20261;-55
2021/01/12 05:35:58;;;;;;;15.95;12.00;;;27.90;46.10;;;;;;4892570;28;20239;-55
2021/01/12 05:38:29;;;;;;;11.88;9.90;;;27.90;46.00;;;;;;4885142;28;20255;-54
2021/01/12 05:41:01;;;;;;;12.88;9.75;;;28.00;45.80;;;;;;4891796;29;20239;-54
2021/01/12 05:43:39;;;;;;;11.55;9.90;;;28.00;45.90;;;;;;4890086;28;20239;-52
2021/01/12 05:46:10;;;;;;;11.88;9.80;;;28.00;45.80;;;;;;4892164;29;20299;-55
2021/01/12 05:48:41;;;;;;;12.27;9.95;;;28.20;46.20;;;;;;4892116;29;20235;-53
2021/01/12 05:51:16;;;;;;;14.27;9.93;;;28.20;46.00;;;;;;4891968;29;20718;-52
2021/01/12 05:54:05;;;;;;;14.40;12.88;;;28.30;45.80;;;;;;4892039;28;20240;-55
2021/01/12 05:56:37;;;;;;;14.52;11.73;;;28.40;45.20;;;;;;4925395;29;20265;-55
2021/01/12 05:59:08;;;;;;;22.90;16.58;;;28.50;45.60;;;;;;4931959;29;20238;-52
2021/01/12 06:01:48;;;;;;;15.70;10.15;;;28.50;45.40;;;;;;4986355;28;20237;-53
2021/01/12 06:04:19;;;;;;;11.35;9.10;;;28.60;45.60;;;;;;5028092;28;20262;-53
2021/01/12 06:06:49;;;;;;;10.70;8.30;;;28.70;45.40;;;;;;5029405;28;20241;-55
2021/01/12 06:09:20;;;;;;;8.50;7.68;;;28.70;45.10;;;;;;5029166;28;20304;-56
2021/01/12 06:11:52;;;;;;;11.15;10.05;;;28.80;45.40;;;;;;5029544;28;20233;-55
2021/01/12 06:14:23;;;;;;;9.50;8.18;;;28.80;45.20;;;;;;5027766;28;20230;-54
2021/01/12 06:16:54;;;;;;;11.40;7.22;;;28.90;45.00;;;;;;5029464;28;20230;-53
2021/01/12 06:19:24;;;;;;;8.45;7.57;;;29.00;45.10;;;;;;5028827;28;20234;-55
2021/01/12 06:22:15;;;;;;;9.02;8.05;;;29.00;45.10;;;;;;4973380;28;20233;-54
2021/01/12 06:25:07;;;;;;;11.00;8.27;;;29.10;45.00;;;;;;4988822;28;20237;-53
2021/01/12 06:27:39;;;;;;;10.75;8.18;;;29.20;45.10;;;;;;4968227;28;20320;-53
2021/01/12 06:30:10;;;;;;;10.13;8.45;;;29.30;44.90;;;;;;4966099;28;20236;-56
2021/01/12 06:32:41;;;;;;;8.73;7.88;;;29.40;44.80;;;;;;5002589;28;20233;-53
2021/01/12 06:35:12;;;;;;;10.70;8.77;;;29.40;44.50;;;;;;4970002;28;20237;-56
2021/01/12 06:37:43;;;;;;;12.77;8.68;;;29.50;44.20;;;;;;4958903;28;20232;-55
2021/01/12 06:40:14;;;;;;;9.55;8.55;;;29.60;44.00;;;;;;4999462;28;20261;-56
2021/01/12 06:42:45;;;;;;;7.78;6.95;;;29.60;43.90;;;;;;4962950;28;20228;-56
2021/01/12 06:45:16;;;;;;;9.07;7.78;;;29.70;44.30;;;;;;4966281;28;20252;-57
2021/01/12 06:47:47;;;;;;;11.75;8.45;;;29.70;44.10;;;;;;4978177;28;20229;-56
2021/01/12 06:50:17;;;;;;;8.55;7.78;;;29.80;44.00;;;;;;4989069;28;20339;-53
2021/01/12 06:52:48;;;;;;;9.43;8.48;;;29.80;43.50;;;;;;4989311;28;20242;-55
2021/01/12 06:55:19;;;;;;;8.75;7.85;;;29.90;43.70;;;;;;4987676;28;20238;-57
2021/01/12 06:57:54;;;;;;;8.60;7.28;;;29.90;43.60;;;;;;4981614;28;20235;-53
2021/01/12 07:00:26;;;;;;;8.10;6.95;;;29.90;43.40;;;;;;4988601;28;20237;-56
2021/01/12 07:02:59;;;;;;;8.20;7.40;;;30.00;43.50;;;;;;4981773;28;20699;-56
2021/01/12 07:05:37;;;;;;;9.02;7.80;;;30.00;43.10;;;;;;4987696;28;20231;-56
2021/01/12 07:08:08;;;;;;;9.75;7.82;;;30.10;42.70;;;;;;4982181;28;20314;-57
2021/01/12 07:10:42;;;;;;;9.00;8.10;;;30.10;42.70;;;;;;4988794;28;20279;-55
2021/01/12 07:13:13;;;;;;;9.57;7.15;;;30.10;42.40;;;;;;4989093;28;20311;-56
2021/01/12 07:15:45;;;;;;;8.55;7.47;;;30.10;42.50;;;;;;4987747;28;20251;-55
2021/01/12 07:18:16;;;;;;;9.32;7.78;;;30.10;42.80;;;;;;4982654;28;20223;-56
2021/01/12 07:20:46;;;;;;;9.70;7.10;;;30.10;42.80;;;;;;4971010;28;20780;-52
2021/01/12 07:23:35;;;;;;;12.75;8.00;;;30.10;42.70;;;;;;4980488;28;20244;-56
2021/01/12 07:26:06;;;;;;;8.85;7.93;;;30.10;42.30;;;;;;4947092;28;20253;-56
2021/01/12 07:28:45;;;;;;;8.27;7.10;;;30.10;42.40;;;;;;4980708;28;20739;-55
2021/01/12 07:31:16;;;;;;;8.73;7.82;;;30.20;42.60;;;;;;4982054;28;20341;-57
2021/01/12 07:33:46;;;;;;;9.82;7.35;;;30.20;42.60;;;;;;4939175;28;20233;-51
2021/01/12 07:36:17;;;;;;;9.40;7.53;;;30.20;42.40;;;;;;5004351;28;20334;-54
2021/01/12 07:38:47;;;;;;;8.30;7.50;;;30.20;42.20;;;;;;4944132;29;20582;-53
2021/01/12 07:41:18;;;;;;;9.43;6.97;;;30.20;42.00;;;;;;4908331;29;20687;-51
2021/01/12 07:43:50;;;;;;;8.27;7.07;;;30.20;42.00;;;;;;4909317;29;20242;-52
2021/01/12 07:46:25;;;;;;;9.90;7.93;;;30.20;42.00;;;;;;4908286;29;20314;-52
2021/01/12 07:48:56;;;;;;;8.32;7.53;;;30.20;42.10;;;;;;4901564;29;20627;-56
2021/01/12 07:51:29;;;;;;;10.05;7.10;;;30.20;42.00;;;;;;4914144;29;20234;-55
2021/01/12 07:53:59;;;;;;;7.80;7.00;;;30.30;42.30;;;;;;4928987;29;20598;-52
2021/01/12 07:56:30;;;;;;;8.25;6.95;;;30.30;42.40;;;;;;4923071;29;20234;-54
2021/01/12 07:59:02;;;;;;;7.15;6.45;;;30.30;42.10;;;;;;4927960;29;20238;-52
2021/01/12 08:01:32;;;;;;;8.13;6.68;;;30.40;42.40;;;;;;4928712;29;20276;-52
2021/01/12 08:04:07;;;;;;;12.05;6.78;;;30.40;42.50;;;;;;4926781;29;20703;-52
2021/01/12 08:06:42;;;;;;;9.25;7.18;;;30.40;42.50;;;;;;4942627;28;20597;-52
2021/01/12 08:09:13;;;;;;;9.68;7.18;;;30.50;42.10;;;;;;4997519;28;20759;-52
2021/01/12 08:11:44;;;;;;;8.43;7.35;;;30.60;42.10;;;;;;4958289;28;20234;-52
2021/01/12 08:14:15;;;;;;;8.00;7.30;;;30.60;42.00;;;;;;4928004;28;20230;-52
2021/01/12 08:16:48;;;;;;;9.02;7.80;;;30.60;42.00;;;;;;4927360;28;20316;-52
2021/01/12 08:19:24;;;;;;;8.65;7.30;;;30.60;41.80;;;;;;4927767;28;20645;-56
2021/01/12 08:21:55;;;;;;;10.90;7.85;;;30.70;41.90;;;;;;4916123;28;20235;-53
2021/01/12 08:24:25;;;;;;;8.43;7.60;;;30.70;41.80;;;;;;4893521;28;20317;-55
2021/01/12 08:26:56;;;;;;;9.23;7.75;;;30.70;41.80;;;;;;4892842;28;20310;-54
2021/01/12 08:29:27;;;;;;;8.93;7.97;;;30.80;41.70;;;;;;4895286;28;20759;-56
2021/01/12 08:32:03;;;;;;;8.73;7.45;;;30.80;41.70;;;;;;4898686;28;20246;-55
2021/01/12 08:34:46;;;;;;;7.78;7.07;;;30.80;41.70;;;;;;4905021;28;20231;-53
2021/01/12 08:37:16;;;;;;;8.43;7.60;;;30.80;41.60;;;;;;4853162;29;20319;-53
2021/01/12 08:39:47;;;;;;;7.53;6.72;;;30.90;41.70;;;;;;4912291;29;20330;-54
2021/01/12 08:42:19;;;;;;;7.05;6.43;;;30.90;41.70;;;;;;4930074;28;20232;-53
2021/01/12 08:44:50;;;;;;;8.15;7.00;;;30.90;41.90;;;;;;4970311;28;20335;-56
2021/01/12 08:47:26;;;;;;;9.00;7.32;;;31.00;41.70;;;;;;4966584;28;20229;-53
2021/01/12 08:50:05;;;;;;;9.20;7.05;;;31.00;41.50;;;;;;4969003;28;20240;-53
2021/01/12 08:52:35;;;;;;;8.82;6.93;;;31.00;41.50;;;;;;4976256;28;20246;-52
2021/01/12 08:55:18;;;;;;;8.20;6.90;;;31.10;41.60;;;;;;4987548;28;20232;-53
2021/01/12 08:57:58;;;;;;;7.35;6.68;;;31.10;41.70;;;;;;4990115;28;20711;-56
2021/01/12 09:00:31;;;;;;;8.07;7.10;;;31.10;41.70;;;;;;4989928;28;20235;-53
2021/01/12 09:03:02;;;;;;;13.95;8.50;;;31.10;41.60;;;;;;5029391;28;20226;-57
2021/01/12 09:05:33;;;;;;;11.90;8.00;;;31.20;41.60;;;;;;4965778;28;20233;-53
2021/01/12 09:08:05;;;;;;;8.25;7.45;;;31.20;41.50;;;;;;4962462;28;20240;-52
2021/01/12 09:10:35;;;;;;;8.70;7.22;;;31.20;41.60;;;;;;4968489;28;20225;-55
2021/01/12 09:13:06;;;;;;;7.20;6.35;;;31.30;41.70;;;;;;4966301;28;20221;-53
2021/01/12 09:15:38;;;;;;;19.88;8.27;;;31.30;41.70;;;;;;4967875;28;20756;-57
2021/01/12 09:18:09;;;;;;;7.75;7.05;;;31.30;41.40;;;;;;4965492;28;20358;-56
2021/01/12 09:20:40;;;;;;;8.43;6.95;;;31.30;41.30;;;;;;4967192;28;20241;-56
2021/01/12 09:23:11;;;;;;;7.72;6.95;;;31.30;41.20;;;;;;4967173;28;20335;-52
2021/01/12 09:25:42;;;;;;;7.20;6.50;;;31.30;41.30;;;;;;4965725;28;20228;-53
2021/01/12 09:28:16;;;;;;;9.45;6.65;;;31.30;41.20;;;;;;4970080;28;20233;-57
2021/01/12 09:30:48;;;;;;;9.25;7.00;;;31.30;41.30;;;;;;4968510;28;20236;-56
2021/01/12 09:33:23;;;;;;;8.00;7.18;;;31.30;41.30;;;;;;4957279;28;20229;-56
2021/01/12 09:36:07;;;;;;;7.35;6.65;;;31.30;41.40;;;;;;4964191;28;20309;-56
2021/01/12 09:38:38;;;;;;;7.90;6.68;;;31.30;41.40;;;;;;4964507;28;20237;-57
2021/01/12 09:41:09;;;;;;;7.80;5.95;;;31.30;41.50;;;;;;4967989;28;20239;-55
2021/01/12 09:43:39;;;;;;;7.30;6.03;;;31.30;41.60;;;;;;4966402;28;20259;-57
2021/01/12 09:46:10;;;;;;;8.00;6.72;;;31.40;41.80;;;;;;4966287;28;20692;-57
2021/01/12 09:48:41;;;;;;;6.85;6.10;;;31.40;41.60;;;;;;4968669;28;20309;-56
2021/01/12 09:51:13;;;;;;;7.22;6.53;;;31.50;41.70;;;;;;4972225;28;20767;-56
2021/01/12 09:53:43;;;;;;;7.15;6.45;;;31.50;41.70;;;;;;4964034;28;20240;-54
2021/01/12 09:56:15;;;;;;;6.90;6.20;;;31.50;41.40;;;;;;4967764;28;20415;-52
2021/01/12 09:58:45;;;;;;;8.60;7.40;;;31.60;41.40;;;;;;4969293;28;20302;-51
2021/01/12 10:01:16;;;;;;;9.43;8.27;;;31.60;41.20;;;;;;4965441;28;20316;-52
2021/01/12 10:03:48;;;;;;;8.38;6.93;;;31.60;41.00;;;;;;4965635;28;20237;-53
2021/01/12 10:06:19;;;;;;;7.88;7.07;;;31.50;41.20;;;;;;4967278;28;20249;-53
2021/01/12 10:08:49;;;;;;;9.10;7.47;;;31.50;41.40;;;;;;4966248;28;20233;-54
2021/01/12 10:11:23;;;;;;;7.60;6.80;;;31.50;41.20;;;;;;4968717;28;20236;-52
2021/01/12 10:13:53;;;;;;;8.82;7.20;;;31.50;41.20;;;;;;4977486;28;20242;-51
2021/01/12 10:16:25;;;;;;;10.32;7.68;;;31.40;41.10;;;;;;4973737;28;20279;-57
2021/01/12 10:18:56;;;;;;;8.52;6.97;;;31.40;41.30;;;;;;4967731;28;20232;-55
2021/01/12 10:21:27;;;;;;;7.95;6.97;;;31.40;41.60;;;;;;4968209;28;20260;-54
2021/01/12 10:23:58;;;;;;;8.43;7.40;;;31.40;41.90;;;;;;4968112;28;20229;-54
2021/01/12 10:26:30;;;;;;;8.90;7.63;;;31.50;41.90;;;;;;4966550;28;20647;-57
2021/01/12 10:29:01;;;;;;;7.78;7.07;;;31.80;41.80;;;;;;4965041;28;20240;-56
2021/01/12 10:31:34;;;;;;;10.63;7.68;;;32.00;41.80;;;;;;4966811;28;20232;-53
2021/01/12 10:34:05;;;;;;;11.15;7.15;;;32.30;41.40;;;;;;4968341;28;20225;-53
2021/01/12 10:36:35;;;;;;;9.75;8.27;;;32.50;40.90;;;;;;4968231;28;20290;-51
2021/01/12 10:39:10;;;;;;;8.80;7.38;;;32.60;39.90;;;;;;4969227;28;20307;-55
2021/01/12 10:41:41;;;;;;;10.15;7.80;;;32.80;39.60;;;;;;4967478;28;20243;-52
2021/01/12 10:44:12;;;;;;;9.25;7.47;;;32.80;39.60;;;;;;4960752;28;20634;-54
2021/01/12 10:46:43;;;;;;;9.73;7.53;;;32.80;39.40;;;;;;4967397;28;20229;-56
2021/01/12 10:49:14;;;;;;;7.90;7.10;;;32.80;39.30;;;;;;4959405;28;20765;-50
2021/01/12 10:51:45;;;;;;;8.35;7.55;;;32.80;39.10;;;;;;4957971;28;20332;-55
2021/01/12 10:54:15;;;;;;;9.80;7.30;;;32.70;39.00;;;;;;4957320;28;20308;-52
2021/01/12 10:56:46;;;;;;;10.15;8.00;;;32.60;39.10;;;;;;5041373;28;20234;-55
2021/01/12 10:59:16;;;;;;;11.10;8.30;;;32.40;39.00;;;;;;5044821;28;20321;-56
2021/01/12 11:01:53;;;;;;;10.57;8.27;;;32.20;39.10;;;;;;5034049;28;20243;-55
2021/01/12 11:04:24;;;;;;;10.73;7.53;;;31.90;39.20;;;;;;5044253;28;20226;-56
2021/01/12 11:06:55;;;;;;;9.07;8.15;;;31.70;39.60;;;;;;5046265;28;20316;-55
2021/01/12 11:09:27;;;;;;;11.30;9.20;;;31.40;39.90;;;;;;5044275;28;20226;-53
2021/01/12 11:12:03;;;;;;;10.65;8.70;;;31.20;40.30;;;;;;5040956;28;20650;-52
2021/01/12 11:14:34;;;;;;;9.48;7.82;;;30.90;40.60;;;;;;5038361;28;20230;-56
2021/01/12 11:17:06;;;;;;;8.88;7.97;;;30.70;40.90;;;;;;5040014;28;20226;-51
2021/01/12 11:19:37;;;;;;;11.73;8.80;;;30.50;41.20;;;;;;5028730;28;20309;-55
2021/01/12 11:22:07;;;;;;;15.57;8.90;;;30.40;41.60;;;;;;5042533;28;21027;-51
2021/01/12 11:24:38;;;;;;;9.00;8.02;;;30.10;41.80;;;;;;5042509;28;20265;-53
2021/01/12 11:27:10;;;;;;;10.85;9.30;;;30.00;42.10;;;;;;5017150;28;20232;-50
2021/01/12 11:29:41;;;;;;;9.15;7.93;;;29.80;43.10;;;;;;4964467;28;20248;-55
2021/01/12 11:32:14;;;;;;;9.77;8.77;;;29.60;42.60;;;;;;4960612;28;20263;-56
2021/01/12 11:34:46;;;;;;;10.10;8.20;;;29.50;42.90;;;;;;4963250;28;20232;-54
2021/01/12 11:37:17;;;;;;;11.65;8.63;;;29.40;43.10;;;;;;4961252;28;20720;-57
2021/01/12 11:39:47;;;;;;;11.40;8.75;;;29.20;43.40;;;;;;4998792;28;20238;-52
2021/01/12 11:42:18;;;;;;;12.57;10.25;;;29.10;43.70;;;;;;4967655;28;20251;-57
2021/01/12 11:44:49;;;;;;;12.43;10.43;;;29.00;43.90;;;;;;4968147;28;20240;-57
2021/01/12 11:47:20;;;;;;;14.38;12.13;;;28.90;44.10;;;;;;4929086;28;20317;-57
2021/01/12 11:49:51;;;;;;;14.13;11.63;;;28.80;44.40;;;;;;4919739;28;20233;-57
2021/01/12 11:52:21;;;;;;;13.07;11.43;;;28.70;44.50;;;;;;4921664;28;20385;-57
2021/01/12 11:54:52;;;;;;;17.98;12.57;;;28.60;44.70;;;;;;4921153;28;20317;-55
2021/01/12 11:57:23;;;;;;;17.50;13.52;;;28.50;44.90;;;;;;4922912;28;20311;-57
2021/01/12 11:59:53;;;;;;;20.95;13.50;;;28.40;45.10;;;;;;4949457;28;20289;-56
2021/01/12 12:02:25;;;;;;;19.10;13.30;;;28.40;45.30;;;;;;4923897;28;20240;-55
2021/01/12 12:04:56;;;;;;;16.67;13.55;;;28.30;45.40;;;;;;4928716;28;20268;-56
2021/01/12 12:07:27;;;;;;;16.75;14.95;;;28.20;45.50;;;;;;4971479;28;20333;-55
2021/01/12 12:10:00;;;;;;;20.60;14.82;;;28.20;45.70;;;;;;4953647;28;20316;-55
2021/01/12 12:12:30;;;;;;;19.05;14.95;;;28.10;45.70;;;;;;4965387;28;20238;-54
2021/01/12 12:15:01;;;;;;;18.90;16.90;;;28.00;45.70;;;;;;4930299;28;20240;-57
2021/01/12 12:17:33;;;;;;;18.50;16.23;;;27.90;45.80;;;;;;4938021;28;20236;-54
2021/01/12 12:20:05;;;;;;;18.35;16.45;;;27.90;46.00;;;;;;4966153;28;20230;-55
2021/01/12 12:22:38;;;;;;;19.00;15.25;;;27.80;46.10;;;;;;4957287;28;20914;-57
2021/01/12 12:25:10;;;;;;;17.80;15.82;;;27.80;46.20;;;;;;4966469;28;20311;-57
2021/01/12 12:27:41;;;;;;;19.60;16.38;;;27.70;46.30;;;;;;4961988;28;20229;-56
2021/01/12 12:30:12;;;;;;;17.20;15.40;;;27.70;46.40;;;;;;4965391;28;20240;-54
2021/01/12 12:32:45;;;;;;;17.85;16.02;;;27.70;46.50;;;;;;4969385;28;20366;-56
2021/01/12 12:35:15;;;;;;;20.05;16.30;;;27.60;46.60;;;;;;4968132;28;20264;-56
2021/01/12 12:37:46;;;;;;;18.58;16.15;;;27.50;46.60;;;;;;4968127;28;20237;-56
2021/01/12 12:40:18;;;;;;;19.88;16.20;;;27.50;46.60;;;;;;4971689;28;20229;-51
2021/01/12 12:42:48;;;;;;;18.80;16.13;;;27.50;46.80;;;;;;4966958;28;20245;-51
2021/01/12 12:45:18;;;;;;;20.70;16.88;;;27.40;46.90;;;;;;4970706;28;20233;-52
2021/01/12 12:47:51;;;;;;;18.02;14.57;;;27.40;47.00;;;;;;4967683;28;20268;-52
2021/01/12 12:50:21;;;;;;;17.10;15.32;;;27.40;47.20;;;;;;4969044;28;20225;-53
2021/01/12 12:52:51;;;;;;;18.77;16.77;;;27.40;47.20;;;;;;4968662;28;20696;-53
2021/01/12 12:55:22;;;;;;;17.23;15.15;;;27.40;47.50;;;;;;4970960;28;20229;-51
2021/01/12 12:57:54;;;;;;;17.63;15.63;;;27.30;47.40;;;;;;4970302;28;20327;-54
2021/01/12 13:00:26;;;;;;;17.10;15.30;;;27.30;47.50;;;;;;4965933;28;20279;-57